createdAt,value
2016-06-16T00:00:50.506Z,954.18
2016-06-16T00:01:50.510Z,954.11
2016-06-16T00:02:50.513Z,954.08
2016-06-16T00:03:50.516Z,954.05
2016-06-16T00:04:50.502Z,954.01
2016-06-16T00:05:50.505Z,953.93
2016-06-16T00:06:50.509Z,953.91
2016-06-16T00:07:50.512Z,953.9
2016-06-16T00:08:50.515Z,953.87
2016-06-16T00:09:50.518Z,953.86
2016-06-16T00:10:50.506Z,953.88
2016-06-16T00:11:50.509Z,953.85
2016-06-16T00:12:50.512Z,953.88
2016-06-16T00:13:50.516Z,953.89
2016-06-16T00:14:50.518Z,953.92
2016-06-16T00:15:50.614Z,953.91
2016-06-16T00:16:50.525Z,953.87
2016-06-16T00:17:50.512Z,953.88
2016-06-16T00:18:50.514Z,953.88
2016-06-16T00:19:50.518Z,953.88
2016-06-16T00:20:50.521Z,953.85
2016-06-16T00:21:50.524Z,953.85
2016-06-16T00:22:50.527Z,953.84
2016-06-16T00:23:50.514Z,953.87
2016-06-16T00:24:50.517Z,953.87
2016-06-16T00:25:50.520Z,953.86
2016-06-16T00:26:50.523Z,953.92
2016-06-16T00:27:50.526Z,953.92
2016-06-16T00:28:50.529Z,953.92
2016-06-16T00:29:50.517Z,953.93
2016-06-16T00:30:50.536Z,953.94
2016-06-16T00:31:50.524Z,953.92
2016-06-16T00:32:50.527Z,953.93
2016-06-16T00:33:50.529Z,953.9
2016-06-16T00:34:50.533Z,953.91
2016-06-16T00:35:50.536Z,953.84
2016-06-16T00:36:50.523Z,953.86
2016-06-16T00:37:50.526Z,953.81
2016-06-16T00:38:50.529Z,953.83
2016-06-16T00:39:50.532Z,953.85
2016-06-16T00:40:51.113Z,953.81
2016-06-16T00:41:50.539Z,953.82
2016-06-16T00:42:50.525Z,953.77
2016-06-16T00:43:50.528Z,953.73
2016-06-16T00:44:50.532Z,953.71
2016-06-16T00:45:50.535Z,953.69
2016-06-16T00:46:50.537Z,953.68
2016-06-16T00:47:50.541Z,953.72
2016-06-16T00:48:50.529Z,953.71
2016-06-16T00:49:50.532Z,953.73
2016-06-16T00:50:50.535Z,953.7
2016-06-16T00:51:50.538Z,953.71
2016-06-16T00:52:50.541Z,953.75
2016-06-16T00:53:50.544Z,953.72
2016-06-16T00:54:50.531Z,953.72
2016-06-16T00:55:50.535Z,953.71
2016-06-16T00:56:50.537Z,953.68
2016-06-16T00:57:50.541Z,953.65
2016-06-16T00:58:50.544Z,953.64
2016-06-16T00:59:50.547Z,953.62
2016-06-16T01:00:50.549Z,953.59
2016-06-16T01:01:50.538Z,953.6
2016-06-16T01:02:50.541Z,953.54
2016-06-16T01:03:50.544Z,953.52
2016-06-16T01:04:50.547Z,953.5
2016-06-16T01:05:50.550Z,953.44
2016-06-16T01:06:50.537Z,953.42
2016-06-16T01:07:50.540Z,953.38
2016-06-16T01:08:50.544Z,953.33
2016-06-16T01:09:50.546Z,953.34
2016-06-16T01:10:50.550Z,953.35
2016-06-16T01:11:50.553Z,953.34
2016-06-16T01:12:50.540Z,953.31
2016-06-16T01:13:50.542Z,953.34
2016-06-16T01:14:50.546Z,953.34
2016-06-16T01:15:50.549Z,953.31
2016-06-16T01:16:50.552Z,953.3
2016-06-16T01:17:50.555Z,953.27
2016-06-16T01:18:50.558Z,953.25
2016-06-16T01:19:50.561Z,953.24
2016-06-16T01:20:50.550Z,953.24
2016-06-16T01:21:50.552Z,953.26
2016-06-16T01:22:50.555Z,953.32
2016-06-16T01:23:50.558Z,953.35
2016-06-16T01:24:50.561Z,953.39
2016-06-16T01:25:50.549Z,953.39
2016-06-16T01:26:50.552Z,953.38
2016-06-16T01:27:50.555Z,953.32
2016-06-16T01:28:50.557Z,953.35
2016-06-16T01:29:50.561Z,953.31
2016-06-16T01:30:50.564Z,953.32
2016-06-16T01:31:50.551Z,953.31
2016-06-16T01:32:50.554Z,953.32
2016-06-16T01:33:50.557Z,953.32
2016-06-16T01:34:50.560Z,953.33
2016-06-16T01:35:50.563Z,953.3
2016-06-16T01:36:50.566Z,953.34
2016-06-16T01:37:50.569Z,953.29
2016-06-16T01:38:50.558Z,953.25
2016-06-16T01:39:50.560Z,953.25
2016-06-16T01:40:50.563Z,953.22
2016-06-16T01:41:50.567Z,953.2
2016-06-16T01:42:50.570Z,953.2
2016-06-16T01:43:50.573Z,953.22
2016-06-16T01:44:50.560Z,953.24
2016-06-16T01:45:50.563Z,953.29
2016-06-16T01:46:50.566Z,953.3
2016-06-16T01:47:50.569Z,953.31
2016-06-16T01:48:50.572Z,953.3
2016-06-16T01:49:50.561Z,953.28
2016-06-16T01:50:50.563Z,953.28
2016-06-16T01:51:50.566Z,953.28
2016-06-16T01:52:50.570Z,953.34
2016-06-16T01:53:50.573Z,953.33
2016-06-16T01:54:50.575Z,953.37
2016-06-16T01:55:50.906Z,953.35
2016-06-16T01:56:50.566Z,953.36
2016-06-16T01:57:50.569Z,953.37
2016-06-16T01:58:50.572Z,953.41
2016-06-16T01:59:50.575Z,953.42
2016-06-16T02:00:50.578Z,953.39
2016-06-16T02:01:50.581Z,953.36
2016-06-16T02:02:50.569Z,953.36
2016-06-16T02:03:50.571Z,953.36
2016-06-16T02:04:50.575Z,953.47
2016-06-16T02:05:50.577Z,953.45
2016-06-16T02:06:50.581Z,953.5
2016-06-16T02:07:50.583Z,953.54
2016-06-16T02:08:50.572Z,953.54
2016-06-16T02:09:50.575Z,953.48
2016-06-16T02:10:50.578Z,953.52
2016-06-16T02:11:50.581Z,953.56
2016-06-16T02:12:50.584Z,953.57
2016-06-16T02:13:50.587Z,953.58
2016-06-16T02:14:50.574Z,953.59
2016-06-16T02:15:50.624Z,953.6
2016-06-16T02:16:50.581Z,953.58
2016-06-16T02:17:50.583Z,953.6
2016-06-16T02:18:50.586Z,953.6
2016-06-16T02:19:50.590Z,953.63
2016-06-16T02:20:50.577Z,953.58
2016-06-16T02:21:50.579Z,953.58
2016-06-16T02:22:50.583Z,953.54
2016-06-16T02:23:50.586Z,953.45
2016-06-16T02:24:50.589Z,953.37
2016-06-16T02:25:50.780Z,953.33
2016-06-16T02:26:50.580Z,953.32
2016-06-16T02:27:50.583Z,953.3
2016-06-16T02:28:50.587Z,953.35
2016-06-16T02:29:50.589Z,953.29
2016-06-16T02:30:50.592Z,953.26
2016-06-16T02:31:50.579Z,953.25
2016-06-16T02:32:50.583Z,953.21
2016-06-16T02:33:50.585Z,953.18
2016-06-16T02:34:50.589Z,953.12
2016-06-16T02:35:50.592Z,953.1
2016-06-16T02:36:50.595Z,953.07
2016-06-16T02:37:50.598Z,953.03
2016-06-16T02:38:50.586Z,953
2016-06-16T02:39:50.589Z,952.98
2016-06-16T02:40:50.592Z,952.96
2016-06-16T02:41:50.595Z,952.95
2016-06-16T02:42:50.598Z,952.91
2016-06-16T02:43:50.616Z,952.91
2016-06-16T02:44:50.589Z,952.93
2016-06-16T02:45:50.592Z,952.96
2016-06-16T02:46:50.594Z,953.01
2016-06-16T02:47:50.613Z,953.03
2016-06-16T02:48:50.601Z,953.03
2016-06-16T02:49:50.604Z,953.03
2016-06-16T02:50:50.606Z,953.01
2016-06-16T02:51:50.594Z,952.95
2016-06-16T02:52:50.597Z,952.98
2016-06-16T02:53:50.600Z,952.92
2016-06-16T02:54:50.603Z,952.86
2016-06-16T02:55:50.607Z,952.85
2016-06-16T02:56:50.594Z,952.79
2016-06-16T02:57:50.597Z,952.79
2016-06-16T02:58:50.601Z,952.79
2016-06-16T02:59:50.604Z,952.75
2016-06-16T03:00:50.607Z,952.75
2016-06-16T03:01:50.610Z,952.79
2016-06-16T03:02:50.597Z,952.81
2016-06-16T03:03:50.600Z,952.82
2016-06-16T03:04:50.603Z,952.81
2016-06-16T03:05:50.606Z,952.85
2016-06-16T03:06:50.609Z,952.83
2016-06-16T03:07:50.613Z,952.87
2016-06-16T03:08:50.599Z,952.88
2016-06-16T03:09:50.602Z,952.92
2016-06-16T03:10:50.605Z,952.94
2016-06-16T03:11:50.688Z,952.93
2016-06-16T03:12:50.612Z,952.9
2016-06-16T03:13:50.614Z,952.86
2016-06-16T03:14:50.602Z,952.83
2016-06-16T03:15:50.606Z,952.79
2016-06-16T03:16:50.609Z,952.79
2016-06-16T03:17:50.612Z,952.76
2016-06-16T03:18:50.615Z,952.79
2016-06-16T03:19:50.618Z,952.74
2016-06-16T03:20:50.621Z,952.72
2016-06-16T03:21:50.608Z,952.71
2016-06-16T03:22:50.611Z,952.73
2016-06-16T03:23:50.614Z,952.76
2016-06-16T03:24:50.618Z,952.66
2016-06-16T03:25:50.620Z,952.68
2016-06-16T03:26:50.608Z,952.62
2016-06-16T03:27:50.612Z,952.65
2016-06-16T03:28:50.615Z,952.62
2016-06-16T03:29:50.617Z,952.62
2016-06-16T03:30:50.621Z,952.62
2016-06-16T03:31:50.608Z,952.58
2016-06-16T03:32:50.611Z,952.61
2016-06-16T03:33:50.614Z,952.6
2016-06-16T03:34:50.617Z,952.64
2016-06-16T03:35:50.620Z,952.65
2016-06-16T03:36:50.624Z,952.65
2016-06-16T03:37:50.610Z,952.63
2016-06-16T03:38:50.613Z,952.66
2016-06-16T03:39:50.616Z,952.6
2016-06-16T03:40:50.619Z,952.63
2016-06-16T03:41:50.623Z,952.59
2016-06-16T03:42:50.625Z,952.57
2016-06-16T03:43:50.613Z,952.56
2016-06-16T03:44:50.617Z,952.6
2016-06-16T03:45:50.619Z,952.58
2016-06-16T03:46:50.623Z,952.62
2016-06-16T03:47:50.626Z,952.56
2016-06-16T03:48:50.629Z,952.6
2016-06-16T03:49:50.616Z,952.59
2016-06-16T03:50:50.620Z,952.52
2016-06-16T03:51:50.622Z,952.53
2016-06-16T03:52:50.625Z,952.53
2016-06-16T03:53:50.628Z,952.48
2016-06-16T03:54:50.632Z,952.48
2016-06-16T03:55:50.618Z,952.52
2016-06-16T03:56:50.919Z,952.52
2016-06-16T03:57:50.625Z,952.5
2016-06-16T03:58:50.628Z,952.54
2016-06-16T03:59:50.631Z,952.51
2016-06-16T04:00:50.634Z,952.52
2016-06-16T04:01:50.622Z,952.49
2016-06-16T04:02:50.625Z,952.46
2016-06-16T04:03:50.629Z,952.42
2016-06-16T04:04:50.631Z,952.44
2016-06-16T04:05:50.634Z,952.45
2016-06-16T04:06:50.637Z,952.41
2016-06-16T04:07:50.625Z,952.39
2016-06-16T04:08:50.627Z,952.35
2016-06-16T04:09:50.630Z,952.35
2016-06-16T04:10:50.634Z,952.33
2016-06-16T04:11:50.622Z,952.28
2016-06-16T04:12:50.625Z,952.31
2016-06-16T04:13:50.627Z,952.31
2016-06-16T04:14:50.631Z,952.3
2016-06-16T04:15:50.680Z,952.33
2016-06-16T04:16:50.656Z,952.37
2016-06-16T04:17:50.699Z,952.37
2016-06-16T04:18:50.741Z,952.37
2016-06-16T04:19:50.768Z,952.35
2016-06-16T04:20:50.811Z,952.42
2016-06-16T04:21:50.843Z,952.39
2016-06-16T04:22:50.860Z,952.42
2016-06-16T04:23:50.877Z,952.43
2016-06-16T04:24:50.879Z,952.46
2016-06-16T04:25:50.896Z,952.48
2016-06-16T04:26:50.909Z,952.49
2016-06-16T04:27:50.917Z,952.5
2016-06-16T04:28:50.925Z,952.52
2016-06-16T04:29:50.933Z,952.55
2016-06-16T04:30:50.926Z,952.56
2016-06-16T04:31:50.933Z,952.57
2016-06-16T04:32:50.938Z,952.63
2016-06-16T04:33:50.943Z,952.63
2016-06-16T04:34:50.948Z,952.72
2016-06-16T04:35:50.952Z,952.76
2016-06-16T04:36:50.957Z,952.72
2016-06-16T04:37:50.961Z,952.75
2016-06-16T04:38:50.949Z,952.76
2016-06-16T04:39:50.969Z,952.76
2016-06-16T04:40:50.957Z,952.78
2016-06-16T04:41:50.960Z,952.82
2016-06-16T04:42:50.948Z,952.83
2016-06-16T04:43:50.951Z,952.87
2016-06-16T04:44:50.955Z,952.89
2016-06-16T04:45:50.958Z,952.9
2016-06-16T04:46:50.961Z,952.87
2016-06-16T04:47:50.964Z,952.86
2016-06-16T04:48:50.953Z,952.88
2016-06-16T04:49:50.955Z,952.86
2016-06-16T04:50:50.959Z,952.9
2016-06-16T04:51:50.977Z,952.89
2016-06-16T04:52:50.965Z,952.94
2016-06-16T04:53:50.968Z,952.94
2016-06-16T04:54:50.955Z,952.95
2016-06-16T04:55:50.958Z,952.96
2016-06-16T04:56:50.977Z,952.92
2016-06-16T04:57:50.965Z,952.97
2016-06-16T04:58:50.967Z,952.99
2016-06-16T04:59:50.970Z,952.96
2016-06-16T05:00:50.973Z,952.96
2016-06-16T05:01:50.976Z,953.03
2016-06-16T05:02:50.964Z,953.03
2016-06-16T05:03:50.968Z,953.1
2016-06-16T05:04:50.971Z,953.11
2016-06-16T05:05:50.973Z,953.09
2016-06-16T05:06:50.977Z,953.16
2016-06-16T05:07:50.980Z,953.2
2016-06-16T05:08:50.967Z,953.22
2016-06-16T05:09:50.970Z,953.24
2016-06-16T05:10:50.973Z,953.23
2016-06-16T05:11:50.976Z,953.24
2016-06-16T05:12:50.980Z,953.24
2016-06-16T05:13:50.967Z,953.23
2016-06-16T05:14:50.970Z,953.29
2016-06-16T05:15:50.973Z,953.25
2016-06-16T05:16:50.975Z,953.25
2016-06-16T05:17:50.979Z,953.19
2016-06-16T05:18:50.982Z,953.23
2016-06-16T05:19:50.970Z,953.19
2016-06-16T05:20:50.973Z,953.22
2016-06-16T05:21:50.976Z,953.2
2016-06-16T05:22:50.979Z,953.15
2016-06-16T05:23:50.982Z,953.1
2016-06-16T05:24:50.985Z,953.08
2016-06-16T05:25:50.988Z,953.1
2016-06-16T05:26:50.976Z,953.1
2016-06-16T05:27:50.979Z,953.11
2016-06-16T05:28:50.982Z,953.1
2016-06-16T05:29:50.984Z,953.09
2016-06-16T05:30:50.987Z,953.07
2016-06-16T05:31:50.991Z,953.01
2016-06-16T05:32:50.978Z,952.99
2016-06-16T05:33:50.981Z,952.95
2016-06-16T05:34:50.984Z,953
2016-06-16T05:35:51.003Z,952.99
2016-06-16T05:36:50.990Z,952.96
2016-06-16T05:37:50.993Z,952.92
2016-06-16T05:38:50.996Z,952.92
2016-06-16T05:39:50.984Z,952.9
2016-06-16T05:40:50.987Z,952.9
2016-06-16T05:41:50.990Z,952.9
2016-06-16T05:42:50.994Z,952.88
2016-06-16T05:43:50.997Z,952.84
2016-06-16T05:44:51.000Z,952.82
2016-06-16T05:45:51.003Z,952.87
2016-06-16T05:46:50.990Z,952.84
2016-06-16T05:47:50.992Z,952.89
2016-06-16T05:48:50.996Z,952.91
2016-06-16T05:49:50.999Z,952.94
2016-06-16T05:50:51.002Z,952.94
2016-06-16T05:51:51.005Z,952.93
2016-06-16T05:52:50.993Z,952.91
2016-06-16T05:53:50.996Z,952.89
2016-06-16T05:54:51.000Z,952.85
2016-06-16T05:55:51.003Z,952.91
2016-06-16T05:56:51.006Z,952.88
2016-06-16T05:57:51.009Z,952.89
2016-06-16T05:58:51.012Z,952.9
2016-06-16T05:59:51.014Z,952.85
2016-06-16T06:00:51.017Z,952.92
2016-06-16T06:01:51.021Z,952.91
2016-06-16T06:02:51.008Z,952.93
2016-06-16T06:03:51.011Z,952.99
2016-06-16T06:04:51.014Z,953.01
2016-06-16T06:05:51.017Z,952.99
2016-06-16T06:06:51.020Z,953.02
2016-06-16T06:07:51.008Z,953.11
2016-06-16T06:08:51.011Z,953.1
2016-06-16T06:09:51.014Z,953.17
2016-06-16T06:10:51.017Z,953.18
2016-06-16T06:11:51.020Z,953.19
2016-06-16T06:12:51.007Z,953.21
2016-06-16T06:13:51.025Z,953.22
2016-06-16T06:14:51.029Z,953.22
2016-06-16T06:15:51.173Z,953.26
2016-06-16T06:16:51.020Z,953.27
2016-06-16T06:17:51.023Z,953.3
2016-06-16T06:18:51.026Z,953.28
2016-06-16T06:19:51.030Z,953.28
2016-06-16T06:20:51.016Z,953.3
2016-06-16T06:21:51.020Z,953.36
2016-06-16T06:22:51.022Z,953.35
2016-06-16T06:23:51.026Z,953.35
2016-06-16T06:24:51.028Z,953.39
2016-06-16T06:25:51.032Z,953.36
2016-06-16T06:26:51.035Z,953.39
2016-06-16T06:27:51.038Z,953.42
2016-06-16T06:28:51.041Z,953.39
2016-06-16T06:29:51.028Z,953.46
2016-06-16T06:30:51.031Z,953.47
2016-06-16T06:31:51.034Z,953.48
2016-06-16T06:32:51.037Z,953.5
2016-06-16T06:33:51.040Z,953.52
2016-06-16T06:34:51.044Z,953.56
2016-06-16T06:35:51.032Z,953.49
2016-06-16T06:36:51.035Z,953.49
2016-06-16T06:37:51.052Z,953.48
2016-06-16T06:38:51.040Z,953.52
2016-06-16T06:39:51.044Z,953.53
2016-06-16T06:40:51.047Z,953.48
2016-06-16T06:41:51.409Z,953.56
2016-06-16T06:42:51.037Z,953.53
2016-06-16T06:43:51.056Z,953.58
2016-06-16T06:44:51.043Z,953.6
2016-06-16T06:45:51.046Z,953.61
2016-06-16T06:46:51.049Z,953.59
2016-06-16T06:47:51.052Z,953.6
2016-06-16T06:48:51.056Z,953.57
2016-06-16T06:49:51.059Z,953.57
2016-06-16T06:50:51.062Z,953.51
2016-06-16T06:51:51.049Z,953.53
2016-06-16T06:52:51.053Z,953.58
2016-06-16T06:53:51.055Z,953.58
2016-06-16T06:54:51.059Z,953.58
2016-06-16T06:55:51.062Z,953.64
2016-06-16T06:56:51.065Z,953.65
2016-06-16T06:57:51.068Z,953.62
2016-06-16T06:58:51.071Z,953.69
2016-06-16T06:59:51.058Z,953.7
2016-06-16T07:00:51.061Z,953.77
2016-06-16T07:01:51.064Z,953.79
2016-06-16T07:02:51.068Z,953.83
2016-06-16T07:03:51.071Z,953.83
2016-06-16T07:04:51.073Z,953.87
2016-06-16T07:05:51.076Z,953.83
2016-06-16T07:06:51.080Z,953.81
2016-06-16T07:07:51.083Z,953.77
2016-06-16T07:08:51.070Z,953.71
2016-06-16T07:09:51.073Z,953.71
2016-06-16T07:10:51.076Z,953.68
2016-06-16T07:11:51.079Z,953.68
2016-06-16T07:12:51.082Z,953.66
2016-06-16T07:13:51.085Z,953.75
2016-06-16T07:14:51.088Z,953.7
2016-06-16T07:15:51.092Z,953.7
2016-06-16T07:16:51.095Z,953.66
2016-06-16T07:17:51.083Z,953.72
2016-06-16T07:18:51.085Z,953.66
2016-06-16T07:19:51.089Z,953.68
2016-06-16T07:20:51.092Z,953.63
2016-06-16T07:21:51.095Z,953.67
2016-06-16T07:22:51.098Z,953.65
2016-06-16T07:23:51.101Z,953.68
2016-06-16T07:24:51.105Z,953.71
2016-06-16T07:25:51.107Z,953.77
2016-06-16T07:26:51.110Z,953.76
2016-06-16T07:27:51.113Z,953.73
2016-06-16T07:28:51.100Z,953.66
2016-06-16T07:29:51.104Z,953.63
2016-06-16T07:30:51.106Z,953.69
2016-06-16T07:31:51.109Z,953.74
2016-06-16T07:32:51.112Z,953.83
2016-06-16T07:33:51.116Z,953.83
2016-06-16T07:48:36.724Z,953.8
2016-06-16T07:48:36.771Z,954.07
2016-06-16T07:48:47.583Z,954.06
2016-06-16T07:49:47.586Z,954.04
2016-06-16T07:50:47.589Z,954.03
2016-06-16T07:51:47.592Z,954.02
2016-06-16T07:52:47.580Z,954
2016-06-16T07:53:47.583Z,953.98
2016-06-16T07:54:47.602Z,953.99
2016-06-16T07:55:47.590Z,954.03
2016-06-16T07:56:47.608Z,953.99
2016-06-16T07:57:47.595Z,954
2016-06-16T07:58:47.598Z,954.03
2016-06-16T07:59:47.602Z,954.01
2016-06-16T08:00:47.605Z,954
2016-06-16T08:01:47.608Z,954.02
2016-06-16T08:02:47.611Z,954.02
2016-06-16T08:03:47.614Z,954.08
2016-06-16T08:04:47.617Z,954.12
2016-06-16T08:05:47.620Z,954.11
2016-06-16T08:06:47.624Z,954.14
2016-06-16T08:07:47.627Z,954.16
2016-06-16T08:08:47.630Z,954.14
2016-06-16T08:09:47.617Z,954.15
2016-06-16T08:10:47.620Z,954.11
2016-06-16T08:11:47.638Z,954.19
2016-06-16T08:12:47.642Z,954.14
2016-06-16T08:13:47.629Z,954.07
2016-06-16T08:14:47.647Z,954.05
2016-06-16T08:15:47.651Z,954.11
2016-06-16T08:16:47.654Z,954.12
2016-06-16T08:17:47.641Z,954.07
2016-06-16T08:18:47.645Z,954.09
2016-06-16T08:19:47.647Z,954.13
2016-06-16T08:20:47.650Z,954.12
2016-06-16T08:21:47.654Z,954.13
2016-06-16T08:22:47.656Z,954.07
2016-06-16T08:23:47.660Z,954.08
2016-06-16T08:24:47.662Z,954.07
2016-06-16T08:25:47.665Z,954.07
2016-06-16T08:26:47.668Z,954.04
2016-06-16T08:27:47.688Z,954.04
2016-06-16T08:28:47.691Z,954.05
2016-06-16T08:29:47.678Z,954.01
2016-06-16T08:30:47.681Z,954.03
2016-06-16T08:31:47.700Z,954.03
2016-06-16T08:32:47.687Z,953.99
2016-06-16T08:33:47.690Z,954.02
2016-06-16T08:34:47.710Z,954.06
2016-06-16T08:35:47.697Z,954.13
2016-06-16T08:36:47.700Z,954.12
2016-06-16T08:37:47.702Z,954.18
2016-06-16T08:38:47.706Z,954.19
2016-06-16T08:39:47.709Z,954.2
2016-06-16T08:40:47.712Z,954.19
2016-06-16T08:41:47.715Z,954.2
2016-06-16T08:42:47.719Z,954.18
2016-06-16T08:43:47.738Z,954.18
2016-06-16T08:44:47.741Z,954.16
2016-06-16T08:45:47.728Z,954.13
2016-06-16T08:46:47.731Z,954.17
2016-06-16T08:47:47.749Z,954.14
2016-06-16T08:48:23.221Z,954.26
2016-06-16T08:49:23.240Z,954.27
2016-06-16T08:50:23.228Z,954.29
2016-06-16T08:51:23.230Z,954.25
2016-06-16T08:52:23.233Z,954.35
2016-06-16T08:53:23.237Z,954.27
2016-06-16T08:54:23.240Z,954.23
2016-06-16T08:55:23.243Z,954.2
2016-06-16T08:56:23.245Z,954.18
2016-06-16T08:57:23.249Z,954.3
2016-06-16T08:58:23.251Z,954.24
2016-06-16T08:59:23.255Z,954.28
2016-06-16T09:00:23.274Z,954.3
2016-06-16T09:01:23.277Z,954.37
2016-06-16T09:02:23.264Z,954.39
2016-06-16T09:03:23.283Z,954.41
2016-06-16T09:04:23.270Z,954.47
2016-06-16T09:05:23.290Z,954.46
2016-06-16T09:06:23.276Z,954.47
2016-06-16T09:07:23.279Z,954.49
2016-06-16T09:08:23.298Z,954.54
2016-06-16T09:09:23.302Z,954.57
2016-06-16T09:10:23.289Z,954.58
2016-06-16T09:11:23.386Z,954.63
2016-06-16T09:12:23.294Z,954.69
2016-06-16T09:13:23.298Z,954.71
2016-06-16T09:14:23.301Z,954.76
2016-06-16T09:15:23.304Z,954.78
2016-06-16T09:16:23.323Z,954.82
2016-06-16T09:17:23.326Z,954.86
2016-06-16T09:18:23.313Z,954.86
2016-06-16T09:19:23.317Z,954.84
2016-06-16T09:20:23.335Z,954.81
2016-06-16T09:21:23.339Z,954.8
2016-06-16T09:22:23.341Z,954.83
2016-06-16T09:23:23.328Z,954.87
2016-06-16T09:24:23.348Z,954.87
2016-06-16T09:25:23.398Z,954.84
2016-06-16T09:26:23.354Z,954.88
2016-06-16T09:27:23.357Z,954.86
2016-06-16T09:28:23.376Z,954.83
2016-06-16T09:29:23.363Z,954.84
2016-06-16T09:30:23.366Z,954.86
2016-06-16T09:31:23.369Z,954.83
2016-06-16T09:32:23.372Z,954.83
2016-06-16T09:33:23.376Z,954.84
2016-06-16T09:34:23.378Z,954.8
2016-06-16T09:35:23.382Z,954.84
2016-06-16T09:36:23.385Z,954.86
2016-06-16T09:37:23.388Z,954.93
2016-06-16T09:38:23.390Z,954.94
2016-06-16T09:39:23.394Z,954.97
2016-06-16T09:40:23.413Z,954.98
2016-06-16T09:41:23.400Z,955
2016-06-16T09:42:23.403Z,955.02
2016-06-16T09:43:23.406Z,955.01
2016-06-16T09:44:23.409Z,954.98
2016-06-16T09:45:23.412Z,955.03
2016-06-16T09:46:23.416Z,954.99
2016-06-16T09:47:23.418Z,955.09
2016-06-16T09:48:23.421Z,955.1
2016-06-16T09:49:23.425Z,955.12
2016-06-16T09:50:23.427Z,955.11
2016-06-16T09:51:23.431Z,955.12
2016-06-16T09:52:23.434Z,955.09
2016-06-16T09:53:23.437Z,955.08
2016-06-16T09:54:23.439Z,955.05
2016-06-16T09:55:23.443Z,955.09
2016-06-16T09:56:23.446Z,955.2
2016-06-16T09:57:23.449Z,955.19
2016-06-16T09:58:23.452Z,955.22
2016-06-16T09:59:23.455Z,955.25
2016-06-16T10:00:23.458Z,955.33
2016-06-16T10:01:23.461Z,955.34
2016-06-16T10:02:23.465Z,955.39
2016-06-16T10:03:23.468Z,955.46
2016-06-16T10:04:23.471Z,955.5
2016-06-16T10:05:23.474Z,955.46
2016-06-16T10:06:23.477Z,955.45
2016-06-16T10:07:23.479Z,955.47
2016-06-16T10:08:23.483Z,955.44
2016-06-16T10:09:23.486Z,955.46
2016-06-16T10:10:23.489Z,955.48
2016-06-16T10:11:23.492Z,955.47
2016-06-16T10:12:23.495Z,955.44
2016-06-16T10:13:23.498Z,955.43
2016-06-16T10:14:23.502Z,955.42
2016-06-16T10:15:23.505Z,955.45
2016-06-16T10:16:23.491Z,955.45
2016-06-16T10:17:23.542Z,955.46
2016-06-16T10:18:23.513Z,955.47
2016-06-16T10:19:23.517Z,955.46
2016-06-16T10:20:23.567Z,955.44
2016-06-16T10:21:23.523Z,955.51
2016-06-16T10:22:23.573Z,955.48
2016-06-16T10:23:23.513Z,955.55
2016-06-16T10:24:23.532Z,955.55
2016-06-16T10:25:23.519Z,955.56
2016-06-16T10:26:23.522Z,955.63
2016-06-16T10:27:23.542Z,955.65
2016-06-16T10:28:23.544Z,955.69
2016-06-16T10:29:23.532Z,955.75
2016-06-16T10:30:23.535Z,955.81
2016-06-16T10:31:23.538Z,955.84
2016-06-16T10:32:23.541Z,955.82
2016-06-16T10:33:23.544Z,955.86
2016-06-16T10:34:23.562Z,955.88
2016-06-16T10:35:23.613Z,955.86
2016-06-16T10:36:23.678Z,955.86
2016-06-16T10:37:23.619Z,955.84
2016-06-16T10:38:23.559Z,955.84
2016-06-16T10:39:23.562Z,955.85
2016-06-16T10:40:23.566Z,955.85
2016-06-16T10:41:23.566Z,955.88
2016-06-16T10:42:23.584Z,955.85
2016-06-16T10:43:23.587Z,955.86
2016-06-16T10:44:23.590Z,955.78
2016-06-16T10:45:23.594Z,955.75
2016-06-16T10:46:23.597Z,955.76
2016-06-16T10:47:23.584Z,955.8
2016-06-16T10:48:23.603Z,955.81
2016-06-16T10:49:23.590Z,955.8
2016-06-16T10:50:23.593Z,955.8
2016-06-16T10:51:23.596Z,955.83
2016-06-16T10:52:23.599Z,955.83
2016-06-16T10:53:23.602Z,955.85
2016-06-16T10:54:23.605Z,955.87
2016-06-16T10:55:23.625Z,955.86
2016-06-16T10:56:23.611Z,955.87
2016-06-16T10:57:23.631Z,955.92
2016-06-16T10:58:23.634Z,955.87
2016-06-16T10:59:23.621Z,955.9
2016-06-16T11:00:23.639Z,955.89
2016-06-16T11:01:23.643Z,955.94
2016-06-16T11:02:23.646Z,955.92
2016-06-16T11:03:23.649Z,955.92
2016-06-16T11:04:23.653Z,955.91
2016-06-16T11:07:38.758Z,955.93
2016-06-16T11:09:41.796Z,955.87
2016-06-16T11:10:41.799Z,955.85
2016-06-16T11:11:41.942Z,955.84
2016-06-16T11:13:44.652Z,955.95
2016-06-16T11:14:44.655Z,955.99
2016-06-16T11:15:44.658Z,955.94
2016-06-16T11:16:44.661Z,956.02
2016-06-16T11:17:44.664Z,956.01
2016-06-16T11:18:44.667Z,956.02
2016-06-16T11:19:44.670Z,956.02
2016-06-16T11:20:44.674Z,956.05
2016-06-16T11:21:44.677Z,956.01
2016-06-16T11:22:44.680Z,956
2016-06-16T11:23:44.683Z,955.97
2016-06-16T11:24:44.686Z,955.94
2016-06-16T11:25:44.689Z,955.9
2016-06-16T11:26:44.691Z,955.9
2016-06-16T11:27:44.695Z,955.88
2016-06-16T11:28:44.698Z,955.93
2016-06-16T11:29:44.701Z,955.92
2016-06-16T11:30:44.704Z,955.92
2016-06-16T11:31:44.707Z,955.88
2016-06-16T11:32:44.710Z,955.87
2016-06-16T11:33:44.714Z,955.9
2016-06-16T11:34:44.716Z,955.88
2016-06-16T11:35:44.720Z,955.87
2016-06-16T11:36:44.739Z,955.86
2016-06-16T11:37:44.709Z,955.87
2016-06-16T11:38:44.728Z,955.87
2016-06-16T11:39:44.716Z,955.84
2016-06-16T11:40:44.735Z,955.85
2016-06-16T11:41:44.738Z,955.84
2016-06-16T11:42:44.741Z,955.8
2016-06-16T11:43:44.744Z,955.8
2016-06-16T11:44:44.747Z,955.81
2016-06-16T11:45:44.750Z,955.83
2016-06-16T11:46:44.754Z,955.82
2016-06-16T11:47:44.756Z,955.8
2016-06-16T11:48:44.759Z,955.79
2016-06-16T11:49:44.746Z,955.8
2016-06-16T11:50:44.765Z,955.8
2016-06-16T11:51:44.753Z,955.83
2016-06-16T11:52:44.756Z,955.87
2016-06-16T11:53:44.775Z,955.94
2016-06-16T11:54:44.762Z,955.93
2016-06-16T11:55:44.765Z,955.99
2016-06-16T11:56:44.768Z,955.94
2016-06-16T11:57:44.771Z,955.9
2016-06-16T11:58:44.775Z,955.86
2016-06-16T11:59:44.778Z,955.82
2016-06-16T12:00:44.780Z,955.85
2016-06-16T12:01:44.784Z,955.92
2016-06-16T12:02:44.787Z,955.92
2016-06-16T12:03:44.789Z,955.89
2016-06-16T12:04:44.793Z,955.89
2016-06-16T12:05:44.796Z,955.97
2016-06-16T12:06:44.799Z,956.07
2016-06-16T12:07:44.818Z,956.11
2016-06-16T12:08:44.805Z,956.03
2016-06-16T12:09:44.808Z,955.93
2016-06-16T12:10:44.811Z,955.89
2016-06-16T12:11:44.955Z,955.91
2016-06-16T12:12:44.817Z,955.96
2016-06-16T12:13:44.820Z,956
2016-06-16T12:14:44.824Z,956.03
2016-06-16T12:15:44.827Z,955.98
2016-06-16T12:16:44.829Z,955.96
2016-06-16T12:17:44.833Z,955.9
2016-06-16T12:18:44.836Z,955.92
2016-06-16T12:19:44.824Z,955.95
2016-06-16T12:20:44.827Z,956
2016-06-16T12:21:44.830Z,956.08
2016-06-16T12:22:44.833Z,956.11
2016-06-16T12:23:44.836Z,956.12
2016-06-16T12:24:44.840Z,956.09
2016-06-16T12:25:44.842Z,956.14
2016-06-16T12:26:44.845Z,956.1
2016-06-16T12:27:44.848Z,956.06
2016-06-16T12:28:44.852Z,956.05
2016-06-16T12:29:44.855Z,956.04
2016-06-16T12:30:44.858Z,956.08
2016-06-16T12:31:44.861Z,956.11
2016-06-16T12:32:44.864Z,956.09
2016-06-16T12:33:44.867Z,956.1
2016-06-16T12:34:44.870Z,956.13
2016-06-16T12:35:44.873Z,956.13
2016-06-16T12:36:44.876Z,956.11
2016-06-16T12:37:44.880Z,956.11
2016-06-16T12:38:44.883Z,956.07
2016-06-16T12:39:44.885Z,956.12
2016-06-16T12:40:44.873Z,956.07
2016-06-16T12:41:44.891Z,956.11
2016-06-16T12:42:44.894Z,956.15
2016-06-16T12:43:44.882Z,956.18
2016-06-16T12:44:44.900Z,956.17
2016-06-16T12:45:44.888Z,956.18
2016-06-16T12:46:44.907Z,956.15
2016-06-16T12:47:44.894Z,956.15